Terminal Aerodrome Forecast
Issued by NWS Tampa Bay Area, FL

Home | Current Version | Previous Version | Text Only | Print | Product List | Glossary On
Versions: 1 2 3 4 5 6 7 8 9 10 11 12 13 14 15 16 17 18 19 20 21 22 23 24 25 26 27 28
000
FTUS42 KTBW 222000 AAB
TAFTPA
TAF AMD
KTPA 222056Z 2221/2318 19010KT P6SM FEW015 SCT040 BKN250
     FM230000 18006KT 6SM BR SCT020 OVC050
     FM230600 18004KT 3SM BR FEW003 BKN050
     FM231500 15008KT 6SM BR FEW015 BKN035=

USA.gov is the U.S. government's official web portal to all federal, state and local government web resources and services.